sensor_id;sensor_type;location;lat;lon;timestamp;P1;durP1;ratioP1;P2;durP2;ratioP2
51943;SDS011;37969;53.132;6.370;2023-01-04T00:01:51;9.98;;;3.92;;
51943;SDS011;37969;53.132;6.370;2023-01-04T00:04:17;19.00;;;3.83;;
51943;SDS011;37969;53.132;6.370;2023-01-04T00:06:43;9.98;;;3.70;;
51943;SDS011;37969;53.132;6.370;2023-01-04T00:09:10;13.00;;;4.07;;
51943;SDS011;37969;53.132;6.370;2023-01-04T00:11:36;12.75;;;3.53;;
51943;SDS011;37969;53.132;6.370;2023-01-04T00:14:02;10.07;;;3.55;;
51943;SDS011;37969;53.132;6.370;2023-01-04T00:16:28;12.15;;;4.07;;
51943;SDS011;37969;53.132;6.370;2023-01-04T00:18:55;14.45;;;4.03;;
51943;SDS011;37969;53.132;6.370;2023-01-04T00:21:22;21.27;;;4.30;;
51943;SDS011;37969;53.132;6.370;2023-01-04T00:23:49;18.45;;;4.53;;
51943;SDS011;37969;53.132;6.370;2023-01-04T00:26:17;14.77;;;4.70;;
51943;SDS011;37969;53.132;6.370;2023-01-04T00:28:44;10.88;;;3.95;;
51943;SDS011;37969;53.132;6.370;2023-01-04T00:31:11;12.80;;;4.45;;
51943;SDS011;37969;53.132;6.370;2023-01-04T00:33:37;15.00;;;4.32;;
51943;SDS011;37969;53.132;6.370;2023-01-04T00:36:04;11.43;;;4.68;;
51943;SDS011;37969;53.132;6.370;2023-01-04T00:38:31;11.80;;;4.32;;
51943;SDS011;37969;53.132;6.370;2023-01-04T00:40:57;12.05;;;4.20;;
51943;SDS011;37969;53.132;6.370;2023-01-04T00:43:23;11.00;;;4.55;;
51943;SDS011;37969;53.132;6.370;2023-01-04T00:45:49;10.52;;;4.25;;
51943;SDS011;37969;53.132;6.370;2023-01-04T00:48:16;18.02;;;4.20;;
51943;SDS011;37969;53.132;6.370;2023-01-04T00:50:42;17.73;;;5.45;;
51943;SDS011;37969;53.132;6.370;2023-01-04T00:53:09;12.65;;;4.18;;
51943;SDS011;37969;53.132;6.370;2023-01-04T00:55:36;12.57;;;4.55;;
51943;SDS011;37969;53.132;6.370;2023-01-04T00:58:02;17.20;;;4.82;;
51943;SDS011;37969;53.132;6.370;2023-01-04T01:00:28;9.00;;;3.92;;
51943;SDS011;37969;53.132;6.370;2023-01-04T01:02:55;12.27;;;4.43;;
51943;SDS011;37969;53.132;6.370;2023-01-04T01:05:21;12.45;;;4.60;;
51943;SDS011;37969;53.132;6.370;2023-01-04T01:07:47;11.88;;;4.75;;
51943;SDS011;37969;53.132;6.370;2023-01-04T01:10:13;13.27;;;4.55;;
51943;SDS011;37969;53.132;6.370;2023-01-04T01:12:39;16.60;;;5.03;;
51943;SDS011;37969;53.132;6.370;2023-01-04T01:15:05;13.85;;;5.03;;
51943;SDS011;37969;53.132;6.370;2023-01-04T01:17:32;15.70;;;4.57;;
51943;SDS011;37969;53.132;6.370;2023-01-04T01:19:58;10.55;;;5.00;;
51943;SDS011;37969;53.132;6.370;2023-01-04T01:22:25;11.10;;;4.72;;
51943;SDS011;37969;53.132;6.370;2023-01-04T01:24:51;14.60;;;5.03;;
51943;SDS011;37969;53.132;6.370;2023-01-04T01:27:17;13.35;;;4.75;;
51943;SDS011;37969;53.132;6.370;2023-01-04T01:29:44;11.77;;;4.60;;
51943;SDS011;37969;53.132;6.370;2023-01-04T01:32:10;11.65;;;4.63;;
51943;SDS011;37969;53.132;6.370;2023-01-04T01:34:36;10.55;;;4.10;;
51943;SDS011;37969;53.132;6.370;2023-01-04T01:37:02;8.90;;;4.38;;
51943;SDS011;37969;53.132;6.370;2023-01-04T01:39:28;8.25;;;4.38;;
51943;SDS011;37969;53.132;6.370;2023-01-04T01:41:54;8.82;;;4.28;;
51943;SDS011;37969;53.132;6.370;2023-01-04T01:47:07;8.50;;;4.68;;
51943;SDS011;37969;53.132;6.370;2023-01-04T01:49:36;11.35;;;5.15;;
51943;SDS011;37969;53.132;6.370;2023-01-04T01:52:05;12.35;;;4.78;;
51943;SDS011;37969;53.132;6.370;2023-01-04T01:54:34;12.18;;;5.10;;
51943;SDS011;37969;53.132;6.370;2023-01-04T01:57:02;11.13;;;5.05;;
51943;SDS011;37969;53.132;6.370;2023-01-04T01:59:29;9.18;;;4.78;;
51943;SDS011;37969;53.132;6.370;2023-01-04T02:01:56;9.10;;;4.82;;
51943;SDS011;37969;53.132;6.370;2023-01-04T02:04:23;5.35;;;3.92;;
51943;SDS011;37969;53.132;6.370;2023-01-04T02:06:50;6.88;;;4.47;;
51943;SDS011;37969;53.132;6.370;2023-01-04T02:09:17;9.18;;;5.00;;
51943;SDS011;37969;53.132;6.370;2023-01-04T02:11:44;9.57;;;3.85;;
51943;SDS011;37969;53.132;6.370;2023-01-04T02:14:10;8.65;;;3.97;;
51943;SDS011;37969;53.132;6.370;2023-01-04T02:27:14;6.80;;;3.30;;
51943;SDS011;37969;53.132;6.370;2023-01-04T02:32:21;3.65;;;2.50;;
51943;SDS011;37969;53.132;6.370;2023-01-04T02:34:54;3.65;;;1.83;;
51943;SDS011;37969;53.132;6.370;2023-01-04T02:42:44;3.10;;;2.35;;
51943;SDS011;37969;53.132;6.370;2023-01-04T02:45:37;4.03;;;2.58;;
51943;SDS011;37969;53.132;6.370;2023-01-04T02:48:05;2.80;;;2.47;;
51943;SDS011;37969;53.132;6.370;2023-01-04T02:50:53;3.40;;;2.47;;
51943;SDS011;37969;53.132;6.370;2023-01-04T02:53:21;4.40;;;2.40;;
51943;SDS011;37969;53.132;6.370;2023-01-04T02:58:24;5.38;;;1.92;;
51943;SDS011;37969;53.132;6.370;2023-01-04T03:00:57;2.20;;;1.98;;
51943;SDS011;37969;53.132;6.370;2023-01-04T03:04:01;3.70;;;2.00;;
51943;SDS011;37969;53.132;6.370;2023-01-04T03:06:57;4.47;;;2.38;;
51943;SDS011;37969;53.132;6.370;2023-01-04T03:09:25;6.05;;;2.40;;
51943;SDS011;37969;53.132;6.370;2023-01-04T03:11:56;3.17;;;2.22;;
51943;SDS011;37969;53.132;6.370;2023-01-04T03:14:43;6.00;;;2.30;;
51943;SDS011;37969;53.132;6.370;2023-01-04T03:17:12;3.40;;;2.17;;
51943;SDS011;37969;53.132;6.370;2023-01-04T03:19:39;3.17;;;2.42;;
51943;SDS011;37969;53.132;6.370;2023-01-04T03:22:19;5.13;;;2.65;;
51943;SDS011;37969;53.132;6.370;2023-01-04T03:25:05;2.20;;;2.03;;
51943;SDS011;37969;53.132;6.370;2023-01-04T03:27:50;2.67;;;2.25;;
51943;SDS011;37969;53.132;6.370;2023-01-04T03:30:38;2.65;;;2.45;;
51943;SDS011;37969;53.132;6.370;2023-01-04T03:33:33;2.10;;;2.00;;
51943;SDS011;37969;53.132;6.370;2023-01-04T03:36:23;3.10;;;2.90;;
51943;SDS011;37969;53.132;6.370;2023-01-04T03:41:42;2.63;;;2.42;;
51943;SDS011;37969;53.132;6.370;2023-01-04T03:44:29;3.25;;;3.00;;
51943;SDS011;37969;53.132;6.370;2023-01-04T03:47:17;3.58;;;3.28;;
51943;SDS011;37969;53.132;6.370;2023-01-04T03:50:07;5.18;;;3.33;;
51943;SDS011;37969;53.132;6.370;2023-01-04T03:52:34;4.35;;;3.80;;
51943;SDS011;37969;53.132;6.370;2023-01-04T03:55:01;4.35;;;4.05;;
51943;SDS011;37969;53.132;6.370;2023-01-04T03:57:28;4.75;;;4.22;;
51943;SDS011;37969;53.132;6.370;2023-01-04T03:59:56;5.75;;;4.60;;
51943;SDS011;37969;53.132;6.370;2023-01-04T04:02:27;5.20;;;3.92;;
51943;SDS011;37969;53.132;6.370;2023-01-04T04:04:53;4.90;;;4.50;;
51943;SDS011;37969;53.132;6.370;2023-01-04T04:07:38;3.80;;;3.50;;
51943;SDS011;37969;53.132;6.370;2023-01-04T04:10:23;4.15;;;3.85;;
51943;SDS011;37969;53.132;6.370;2023-01-04T04:12:49;5.13;;;4.70;;
51943;SDS011;37969;53.132;6.370;2023-01-04T04:15:16;5.03;;;4.57;;
51943;SDS011;37969;53.132;6.370;2023-01-04T04:17:42;4.50;;;4.20;;
51943;SDS011;37969;53.132;6.370;2023-01-04T04:20:10;4.82;;;4.50;;
51943;SDS011;37969;53.132;6.370;2023-01-04T04:22:37;3.95;;;3.65;;
51943;SDS011;37969;53.132;6.370;2023-01-04T04:25:03;3.85;;;3.55;;
51943;SDS011;37969;53.132;6.370;2023-01-04T04:27:29;2.90;;;2.70;;
51943;SDS011;37969;53.132;6.370;2023-01-04T04:29:56;4.22;;;3.85;;
51943;SDS011;37969;53.132;6.370;2023-01-04T04:32:22;3.88;;;3.58;;
51943;SDS011;37969;53.132;6.370;2023-01-04T04:34:48;4.63;;;3.65;;
51943;SDS011;37969;53.132;6.370;2023-01-04T04:37:14;3.50;;;3.20;;
51943;SDS011;37969;53.132;6.370;2023-01-04T04:39:40;4.38;;;3.97;;
51943;SDS011;37969;53.132;6.370;2023-01-04T04:42:07;6.43;;;5.68;;
51943;SDS011;37969;53.132;6.370;2023-01-04T04:44:33;5.80;;;5.30;;
51943;SDS011;37969;53.132;6.370;2023-01-04T04:47:00;5.43;;;4.93;;
51943;SDS011;37969;53.132;6.370;2023-01-04T04:49:26;6.05;;;5.03;;
51943;SDS011;37969;53.132;6.370;2023-01-04T04:51:52;4.93;;;4.53;;
51943;SDS011;37969;53.132;6.370;2023-01-04T04:54:19;7.00;;;6.30;;
51943;SDS011;37969;53.132;6.370;2023-01-04T04:56:46;7.00;;;5.10;;
51943;SDS011;37969;53.132;6.370;2023-01-04T04:59:12;5.93;;;5.15;;
51943;SDS011;37969;53.132;6.370;2023-01-04T05:01:38;6.63;;;5.53;;
51943;SDS011;37969;53.132;6.370;2023-01-04T05:04:05;4.68;;;4.30;;
51943;SDS011;37969;53.132;6.370;2023-01-04T05:06:31;4.40;;;3.90;;
51943;SDS011;37969;53.132;6.370;2023-01-04T05:08:57;6.65;;;5.13;;
51943;SDS011;37969;53.132;6.370;2023-01-04T05:11:23;4.93;;;4.53;;
51943;SDS011;37969;53.132;6.370;2023-01-04T05:14:09;4.05;;;3.20;;
51943;SDS011;37969;53.132;6.370;2023-01-04T05:16:35;4.85;;;3.95;;
51943;SDS011;37969;53.132;6.370;2023-01-04T05:19:01;4.10;;;3.50;;
51943;SDS011;37969;53.132;6.370;2023-01-04T05:21:27;4.68;;;4.38;;
51943;SDS011;37969;53.132;6.370;2023-01-04T05:23:53;5.32;;;4.80;;
51943;SDS011;37969;53.132;6.370;2023-01-04T05:26:19;3.00;;;2.80;;
51943;SDS011;37969;53.132;6.370;2023-01-04T05:28:46;4.15;;;3.80;;
51943;SDS011;37969;53.132;6.370;2023-01-04T05:31:12;3.95;;;3.65;;
51943;SDS011;37969;53.132;6.370;2023-01-04T05:33:38;3.17;;;2.97;;
51943;SDS011;37969;53.132;6.370;2023-01-04T05:36:05;4.97;;;3.90;;
51943;SDS011;37969;53.132;6.370;2023-01-04T05:38:31;5.40;;;4.10;;
51943;SDS011;37969;53.132;6.370;2023-01-04T05:40:59;4.18;;;3.72;;
51943;SDS011;37969;53.132;6.370;2023-01-04T05:43:25;3.60;;;3.30;;
51943;SDS011;37969;53.132;6.370;2023-01-04T05:45:52;4.53;;;4.05;;
51943;SDS011;37969;53.132;6.370;2023-01-04T05:48:19;3.78;;;3.40;;
51943;SDS011;37969;53.132;6.370;2023-01-04T05:50:45;3.97;;;3.67;;
51943;SDS011;37969;53.132;6.370;2023-01-04T05:53:12;4.85;;;3.70;;
51943;SDS011;37969;53.132;6.370;2023-01-04T05:55:38;4.63;;;3.88;;
51943;SDS011;37969;53.132;6.370;2023-01-04T05:58:05;5.30;;;4.90;;
51943;SDS011;37969;53.132;6.370;2023-01-04T06:00:31;4.82;;;4.40;;
51943;SDS011;37969;53.132;6.370;2023-01-04T06:02:57;4.53;;;4.13;;
51943;SDS011;37969;53.132;6.370;2023-01-04T06:05:23;3.92;;;3.25;;
51943;SDS011;37969;53.132;6.370;2023-01-04T06:07:50;4.95;;;4.45;;
51943;SDS011;37969;53.132;6.370;2023-01-04T06:10:16;6.07;;;4.55;;
51943;SDS011;37969;53.132;6.370;2023-01-04T06:12:43;2.65;;;2.45;;
51943;SDS011;37969;53.132;6.370;2023-01-04T06:15:10;3.72;;;3.42;;
51943;SDS011;37969;53.132;6.370;2023-01-04T06:17:36;4.15;;;3.65;;
51943;SDS011;37969;53.132;6.370;2023-01-04T06:20:03;4.22;;;3.40;;
51943;SDS011;37969;53.132;6.370;2023-01-04T06:22:29;5.57;;;3.50;;
51943;SDS011;37969;53.132;6.370;2023-01-04T06:24:57;5.22;;;3.42;;
51943;SDS011;37969;53.132;6.370;2023-01-04T06:27:23;3.53;;;3.22;;
51943;SDS011;37969;53.132;6.370;2023-01-04T06:29:49;4.80;;;2.47;;
51943;SDS011;37969;53.132;6.370;2023-01-04T06:32:17;5.57;;;3.13;;
51943;SDS011;37969;53.132;6.370;2023-01-04T06:34:43;4.65;;;2.83;;
51943;SDS011;37969;53.132;6.370;2023-01-04T06:37:09;1.98;;;1.83;;
51943;SDS011;37969;53.132;6.370;2023-01-04T06:39:36;1.80;;;1.70;;
51943;SDS011;37969;53.132;6.370;2023-01-04T06:42:02;2.63;;;1.73;;
51943;SDS011;37969;53.132;6.370;2023-01-04T06:44:29;5.47;;;2.50;;
51943;SDS011;37969;53.132;6.370;2023-01-04T06:46:55;5.28;;;2.72;;
51943;SDS011;37969;53.132;6.370;2023-01-04T06:49:21;2.65;;;1.73;;
51943;SDS011;37969;53.132;6.370;2023-01-04T06:51:47;2.50;;;1.95;;
51943;SDS011;37969;53.132;6.370;2023-01-04T06:54:13;4.07;;;2.08;;
51943;SDS011;37969;53.132;6.370;2023-01-04T06:56:39;2.30;;;2.10;;
51943;SDS011;37969;53.132;6.370;2023-01-04T06:59:06;5.20;;;2.60;;
51943;SDS011;37969;53.132;6.370;2023-01-04T07:01:33;3.08;;;2.78;;
51943;SDS011;37969;53.132;6.370;2023-01-04T07:04:00;4.50;;;2.70;;
51943;SDS011;37969;53.132;6.370;2023-01-04T07:06:26;4.70;;;3.10;;
51943;SDS011;37969;53.132;6.370;2023-01-04T07:08:52;3.95;;;3.00;;
51943;SDS011;37969;53.132;6.370;2023-01-04T07:11:19;3.80;;;2.45;;
51943;SDS011;37969;53.132;6.370;2023-01-04T07:13:45;7.45;;;2.83;;
51943;SDS011;37969;53.132;6.370;2023-01-04T07:16:12;7.68;;;3.45;;
51943;SDS011;37969;53.132;6.370;2023-01-04T07:18:38;5.90;;;2.88;;
51943;SDS011;37969;53.132;6.370;2023-01-04T07:21:04;8.20;;;3.60;;
51943;SDS011;37969;53.132;6.370;2023-01-04T07:23:30;4.40;;;3.22;;
51943;SDS011;37969;53.132;6.370;2023-01-04T07:25:59;4.55;;;2.20;;
51943;SDS011;37969;53.132;6.370;2023-01-04T07:28:26;4.53;;;2.90;;
51943;SDS011;37969;53.132;6.370;2023-01-04T07:31:10;5.35;;;3.47;;
51943;SDS011;37969;53.132;6.370;2023-01-04T07:33:36;6.53;;;3.05;;
51943;SDS011;37969;53.132;6.370;2023-01-04T07:36:03;7.18;;;3.22;;
51943;SDS011;37969;53.132;6.370;2023-01-04T07:38:29;6.35;;;3.33;;
51943;SDS011;37969;53.132;6.370;2023-01-04T07:40:56;5.32;;;3.03;;
51943;SDS011;37969;53.132;6.370;2023-01-04T07:43:22;8.30;;;3.38;;
51943;SDS011;37969;53.132;6.370;2023-01-04T07:45:48;8.95;;;2.50;;
51943;SDS011;37969;53.132;6.370;2023-01-04T07:48:15;6.95;;;3.08;;
51943;SDS011;37969;53.132;6.370;2023-01-04T07:50:41;6.35;;;3.60;;
51943;SDS011;37969;53.132;6.370;2023-01-04T07:53:07;7.53;;;3.03;;
51943;SDS011;37969;53.132;6.370;2023-01-04T07:55:33;9.68;;;3.92;;
51943;SDS011;37969;53.132;6.370;2023-01-04T07:57:59;8.43;;;3.17;;
51943;SDS011;37969;53.132;6.370;2023-01-04T08:00:25;5.50;;;2.50;;
51943;SDS011;37969;53.132;6.370;2023-01-04T08:02:52;4.63;;;2.60;;
51943;SDS011;37969;53.132;6.370;2023-01-04T08:05:18;4.85;;;3.10;;
51943;SDS011;37969;53.132;6.370;2023-01-04T08:07:44;4.68;;;2.75;;
51943;SDS011;37969;53.132;6.370;2023-01-04T08:10:10;4.45;;;2.30;;
51943;SDS011;37969;53.132;6.370;2023-01-04T08:12:36;3.55;;;2.20;;
51943;SDS011;37969;53.132;6.370;2023-01-04T08:15:03;4.00;;;2.25;;
51943;SDS011;37969;53.132;6.370;2023-01-04T08:17:29;2.97;;;2.15;;
51943;SDS011;37969;53.132;6.370;2023-01-04T08:19:55;4.78;;;2.35;;
51943;SDS011;37969;53.132;6.370;2023-01-04T08:22:21;7.88;;;2.90;;
51943;SDS011;37969;53.132;6.370;2023-01-04T08:24:47;6.38;;;2.20;;
51943;SDS011;37969;53.132;6.370;2023-01-04T08:27:13;8.35;;;4.30;;
51943;SDS011;37969;53.132;6.370;2023-01-04T08:29:40;3.72;;;2.40;;
51943;SDS011;37969;53.132;6.370;2023-01-04T08:32:06;4.70;;;2.60;;
51943;SDS011;37969;53.132;6.370;2023-01-04T08:34:32;8.48;;;2.67;;
51943;SDS011;37969;53.132;6.370;2023-01-04T08:36:58;7.05;;;3.13;;
51943;SDS011;37969;53.132;6.370;2023-01-04T08:39:24;6.43;;;2.00;;
51943;SDS011;37969;53.132;6.370;2023-01-04T08:41:53;8.23;;;3.40;;
51943;SDS011;37969;53.132;6.370;2023-01-04T08:44:20;5.03;;;2.15;;
51943;SDS011;37969;53.132;6.370;2023-01-04T08:46:47;6.72;;;2.50;;
51943;SDS011;37969;53.132;6.370;2023-01-04T08:49:13;4.15;;;1.60;;
51943;SDS011;37969;53.132;6.370;2023-01-04T08:51:40;3.97;;;1.30;;
51943;SDS011;37969;53.132;6.370;2023-01-04T08:54:06;6.40;;;1.88;;
51943;SDS011;37969;53.132;6.370;2023-01-04T08:56:32;3.85;;;1.70;;
51943;SDS011;37969;53.132;6.370;2023-01-04T08:58:59;4.57;;;1.80;;
51943;SDS011;37969;53.132;6.370;2023-01-04T09:01:25;4.50;;;2.10;;
51943;SDS011;37969;53.132;6.370;2023-01-04T09:03:51;5.55;;;1.75;;
51943;SDS011;37969;53.132;6.370;2023-01-04T09:06:19;6.80;;;2.58;;
51943;SDS011;37969;53.132;6.370;2023-01-04T09:08:46;6.18;;;1.70;;
51943;SDS011;37969;53.132;6.370;2023-01-04T09:11:13;7.35;;;1.80;;
51943;SDS011;37969;53.132;6.370;2023-01-04T09:13:40;8.00;;;2.35;;
51943;SDS011;37969;53.132;6.370;2023-01-04T09:16:07;4.82;;;2.40;;
51943;SDS011;37969;53.132;6.370;2023-01-04T09:18:34;6.35;;;2.10;;
51943;SDS011;37969;53.132;6.370;2023-01-04T09:21:04;6.95;;;2.10;;
51943;SDS011;37969;53.132;6.370;2023-01-04T09:23:30;18.95;;;10.93;;
51943;SDS011;37969;53.132;6.370;2023-01-04T09:25:58;11.15;;;3.00;;
51943;SDS011;37969;53.132;6.370;2023-01-04T09:28:25;9.95;;;2.72;;
51943;SDS011;37969;53.132;6.370;2023-01-04T09:30:51;5.43;;;2.42;;
51943;SDS011;37969;53.132;6.370;2023-01-04T09:33:17;10.50;;;3.05;;
51943;SDS011;37969;53.132;6.370;2023-01-04T09:35:44;11.27;;;3.22;;
51943;SDS011;37969;53.132;6.370;2023-01-04T09:38:10;9.60;;;2.60;;
51943;SDS011;37969;53.132;6.370;2023-01-04T09:40:53;7.82;;;2.65;;
51943;SDS011;37969;53.132;6.370;2023-01-04T09:43:21;10.55;;;2.40;;
51943;SDS011;37969;53.132;6.370;2023-01-04T09:45:48;7.65;;;2.42;;
51943;SDS011;37969;53.132;6.370;2023-01-04T09:48:18;12.95;;;3.97;;
51943;SDS011;37969;53.132;6.370;2023-01-04T09:50:51;12.13;;;3.33;;
51943;SDS011;37969;53.132;6.370;2023-01-04T09:53:27;8.90;;;3.38;;
51943;SDS011;37969;53.132;6.370;2023-01-04T09:55:56;13.68;;;4.20;;
51943;SDS011;37969;53.132;6.370;2023-01-04T10:00:54;13.70;;;3.20;;
51943;SDS011;37969;53.132;6.370;2023-01-04T10:05:49;11.38;;;3.33;;
51943;SDS011;37969;53.132;6.370;2023-01-04T10:08:16;13.93;;;3.17;;
51943;SDS011;37969;53.132;6.370;2023-01-04T10:11:00;16.80;;;3.90;;
51943;SDS011;37969;53.132;6.370;2023-01-04T10:16:15;11.68;;;3.15;;
51943;SDS011;37969;53.132;6.370;2023-01-04T10:18:47;16.77;;;3.10;;
51943;SDS011;37969;53.132;6.370;2023-01-04T10:23:50;16.58;;;3.78;;
51943;SDS011;37969;53.132;6.370;2023-01-04T10:26:23;25.08;;;3.83;;
51943;SDS011;37969;53.132;6.370;2023-01-04T10:28:54;30.27;;;5.53;;
51943;SDS011;37969;53.132;6.370;2023-01-04T10:31:29;23.45;;;4.45;;
51943;SDS011;37969;53.132;6.370;2023-01-04T10:34:00;25.73;;;5.30;;
51943;SDS011;37969;53.132;6.370;2023-01-04T10:36:29;29.48;;;4.75;;
51943;SDS011;37969;53.132;6.370;2023-01-04T10:39:00;26.67;;;4.82;;
51943;SDS011;37969;53.132;6.370;2023-01-04T10:41:27;26.48;;;5.47;;
51943;SDS011;37969;53.132;6.370;2023-01-04T10:46:26;24.33;;;4.43;;
51943;SDS011;37969;53.132;6.370;2023-01-04T10:48:57;27.30;;;5.32;;
51943;SDS011;37969;53.132;6.370;2023-01-04T10:51:28;26.48;;;5.72;;
51943;SDS011;37969;53.132;6.370;2023-01-04T10:53:57;41.58;;;6.47;;
51943;SDS011;37969;53.132;6.370;2023-01-04T10:56:27;47.60;;;7.50;;
51943;SDS011;37969;53.132;6.370;2023-01-04T10:59:02;38.05;;;7.10;;
51943;SDS011;37969;53.132;6.370;2023-01-04T11:04:01;42.85;;;6.43;;
51943;SDS011;37969;53.132;6.370;2023-01-04T11:06:30;43.80;;;6.72;;
51943;SDS011;37969;53.132;6.370;2023-01-04T11:09:00;30.42;;;5.55;;
51943;SDS011;37969;53.132;6.370;2023-01-04T11:11:29;34.13;;;5.32;;
51943;SDS011;37969;53.132;6.370;2023-01-04T11:16:24;44.30;;;6.55;;
51943;SDS011;37969;53.132;6.370;2023-01-04T11:18:50;22.38;;;4.32;;
51943;SDS011;37969;53.132;6.370;2023-01-04T11:21:18;27.60;;;4.45;;
51943;SDS011;37969;53.132;6.370;2023-01-04T11:23:46;41.25;;;6.40;;
51943;SDS011;37969;53.132;6.370;2023-01-04T11:26:17;59.25;;;9.63;;
51943;SDS011;37969;53.132;6.370;2023-01-04T11:28:46;54.65;;;7.93;;
51943;SDS011;37969;53.132;6.370;2023-01-04T11:33:57;36.85;;;6.63;;
51943;SDS011;37969;53.132;6.370;2023-01-04T11:38:56;42.83;;;7.20;;
51943;SDS011;37969;53.132;6.370;2023-01-04T11:41:23;40.38;;;6.75;;
51943;SDS011;37969;53.132;6.370;2023-01-04T11:43:57;45.95;;;6.82;;
51943;SDS011;37969;53.132;6.370;2023-01-04T11:46:24;33.03;;;5.85;;
51943;SDS011;37969;53.132;6.370;2023-01-04T11:48:51;32.72;;;4.78;;
51943;SDS011;37969;53.132;6.370;2023-01-04T11:53:56;36.92;;;7.22;;
51943;SDS011;37969;53.132;6.370;2023-01-04T11:56:23;26.15;;;5.30;;
51943;SDS011;37969;53.132;6.370;2023-01-04T11:59:01;32.00;;;5.75;;
51943;SDS011;37969;53.132;6.370;2023-01-04T12:01:28;36.78;;;5.88;;
51943;SDS011;37969;53.132;6.370;2023-01-04T12:03:54;32.92;;;4.32;;
51943;SDS011;37969;53.132;6.370;2023-01-04T12:06:23;38.17;;;6.00;;
51943;SDS011;37969;53.132;6.370;2023-01-04T12:08:52;38.55;;;6.05;;
51943;SDS011;37969;53.132;6.370;2023-01-04T12:11:22;42.17;;;5.80;;
51943;SDS011;37969;53.132;6.370;2023-01-04T12:13:51;25.85;;;5.07;;
51943;SDS011;37969;53.132;6.370;2023-01-04T12:16:20;24.25;;;4.85;;
51943;SDS011;37969;53.132;6.370;2023-01-04T12:18:51;27.17;;;5.20;;
51943;SDS011;37969;53.132;6.370;2023-01-04T12:21:20;27.15;;;4.28;;
51943;SDS011;37969;53.132;6.370;2023-01-04T12:23:46;20.93;;;3.93;;
51943;SDS011;37969;53.132;6.370;2023-01-04T12:26:13;25.33;;;5.00;;
51943;SDS011;37969;53.132;6.370;2023-01-04T12:28:41;23.98;;;4.75;;
51943;SDS011;37969;53.132;6.370;2023-01-04T12:33:44;20.42;;;4.07;;
51943;SDS011;37969;53.132;6.370;2023-01-04T12:36:12;18.80;;;3.53;;
51943;SDS011;37969;53.132;6.370;2023-01-04T12:41:18;13.73;;;2.55;;
51943;SDS011;37969;53.132;6.370;2023-01-04T12:43:44;14.75;;;3.63;;
51943;SDS011;37969;53.132;6.370;2023-01-04T12:54:22;18.73;;;3.40;;
51943;SDS011;37969;53.132;6.370;2023-01-04T12:57:08;11.73;;;2.97;;
51943;SDS011;37969;53.132;6.370;2023-01-04T12:59:35;9.37;;;2.23;;
51943;SDS011;37969;53.132;6.370;2023-01-04T13:02:19;13.02;;;3.47;;
51943;SDS011;37969;53.132;6.370;2023-01-04T13:04:46;19.13;;;4.60;;
51943;SDS011;37969;53.132;6.370;2023-01-04T13:07:13;23.45;;;4.35;;
51943;SDS011;37969;53.132;6.370;2023-01-04T13:09:42;20.83;;;3.42;;
51943;SDS011;37969;53.132;6.370;2023-01-04T13:12:18;31.67;;;9.02;;
51943;SDS011;37969;53.132;6.370;2023-01-04T13:14:49;26.00;;;5.63;;
51943;SDS011;37969;53.132;6.370;2023-01-04T13:19:42;22.50;;;4.57;;
51943;SDS011;37969;53.132;6.370;2023-01-04T13:22:11;34.25;;;9.98;;
51943;SDS011;37969;53.132;6.370;2023-01-04T13:24:41;29.73;;;5.53;;
51943;SDS011;37969;53.132;6.370;2023-01-04T13:27:13;33.70;;;7.13;;
51943;SDS011;37969;53.132;6.370;2023-01-04T13:29:40;34.78;;;9.82;;
51943;SDS011;37969;53.132;6.370;2023-01-04T13:32:09;29.10;;;5.13;;
51943;SDS011;37969;53.132;6.370;2023-01-04T13:37:05;37.05;;;10.85;;
51943;SDS011;37969;53.132;6.370;2023-01-04T13:41:59;36.00;;;5.80;;
51943;SDS011;37969;53.132;6.370;2023-01-04T13:44:31;48.38;;;15.10;;
51943;SDS011;37969;53.132;6.370;2023-01-04T13:47:04;51.50;;;14.68;;
51943;SDS011;37969;53.132;6.370;2023-01-04T13:49:32;46.55;;;14.88;;
51943;SDS011;37969;53.132;6.370;2023-01-04T13:52:20;45.50;;;15.40;;
51943;SDS011;37969;53.132;6.370;2023-01-04T13:54:47;23.75;;;5.20;;
51943;SDS011;37969;53.132;6.370;2023-01-04T13:57:16;63.05;;;24.67;;
51943;SDS011;37969;53.132;6.370;2023-01-04T13:59:45;56.28;;;13.98;;
51943;SDS011;37969;53.132;6.370;2023-01-04T14:02:14;44.72;;;10.50;;
51943;SDS011;37969;53.132;6.370;2023-01-04T14:04:41;26.10;;;5.67;;
51943;SDS011;37969;53.132;6.370;2023-01-04T14:07:07;45.72;;;14.50;;
51943;SDS011;37969;53.132;6.370;2023-01-04T14:09:35;49.03;;;16.95;;
51943;SDS011;37969;53.132;6.370;2023-01-04T14:12:13;50.60;;;17.38;;
51943;SDS011;37969;53.132;6.370;2023-01-04T14:14:55;29.45;;;5.03;;
51943;SDS011;37969;53.132;6.370;2023-01-04T14:19:58;27.98;;;5.85;;
51943;SDS011;37969;53.132;6.370;2023-01-04T14:22:25;26.30;;;4.80;;
51943;SDS011;37969;53.132;6.370;2023-01-04T14:24:54;60.90;;;20.10;;
51943;SDS011;37969;53.132;6.370;2023-01-04T14:27:28;37.90;;;9.00;;
51943;SDS011;37969;53.132;6.370;2023-01-04T14:29:56;45.83;;;10.48;;
51943;SDS011;37969;53.132;6.370;2023-01-04T14:32:22;42.10;;;11.30;;
51943;SDS011;37969;53.132;6.370;2023-01-04T14:34:48;36.08;;;10.35;;
51943;SDS011;37969;53.132;6.370;2023-01-04T14:37:15;48.55;;;16.88;;
51943;SDS011;37969;53.132;6.370;2023-01-04T14:39:41;29.05;;;5.90;;
51943;SDS011;37969;53.132;6.370;2023-01-04T14:42:22;24.98;;;4.47;;
51943;SDS011;37969;53.132;6.370;2023-01-04T14:44:48;43.03;;;11.68;;
51943;SDS011;37969;53.132;6.370;2023-01-04T14:47:15;26.23;;;6.20;;
51943;SDS011;37969;53.132;6.370;2023-01-04T14:49:41;30.92;;;7.13;;
51943;SDS011;37969;53.132;6.370;2023-01-04T14:52:09;31.35;;;7.55;;
51943;SDS011;37969;53.132;6.370;2023-01-04T14:54:35;39.95;;;10.25;;
51943;SDS011;37969;53.132;6.370;2023-01-04T14:57:03;36.42;;;9.63;;
51943;SDS011;37969;53.132;6.370;2023-01-04T14:59:30;44.08;;;10.82;;
51943;SDS011;37969;53.132;6.370;2023-01-04T15:01:56;47.25;;;10.93;;
51943;SDS011;37969;53.132;6.370;2023-01-04T15:04:22;27.55;;;4.60;;
51943;SDS011;37969;53.132;6.370;2023-01-04T15:06:51;44.55;;;9.55;;
51943;SDS011;37969;53.132;6.370;2023-01-04T15:09:17;37.80;;;8.13;;
51943;SDS011;37969;53.132;6.370;2023-01-04T15:11:43;26.83;;;5.30;;
51943;SDS011;37969;53.132;6.370;2023-01-04T15:14:10;24.75;;;3.97;;
51943;SDS011;37969;53.132;6.370;2023-01-04T15:16:36;27.50;;;4.13;;
51943;SDS011;37969;53.132;6.370;2023-01-04T15:19:02;33.00;;;5.22;;
51943;SDS011;37969;53.132;6.370;2023-01-04T15:21:29;40.00;;;5.28;;
51943;SDS011;37969;53.132;6.370;2023-01-04T15:23:55;35.70;;;7.10;;
51943;SDS011;37969;53.132;6.370;2023-01-04T15:26:21;21.17;;;4.18;;
51943;SDS011;37969;53.132;6.370;2023-01-04T15:28:47;28.33;;;5.63;;
51943;SDS011;37969;53.132;6.370;2023-01-04T15:31:14;27.52;;;5.13;;
51943;SDS011;37969;53.132;6.370;2023-01-04T15:33:40;33.88;;;5.20;;
51943;SDS011;37969;53.132;6.370;2023-01-04T15:36:07;27.33;;;4.50;;
51943;SDS011;37969;53.132;6.370;2023-01-04T15:38:34;34.58;;;5.45;;
51943;SDS011;37969;53.132;6.370;2023-01-04T15:41:02;27.27;;;5.13;;
51943;SDS011;37969;53.132;6.370;2023-01-04T15:43:28;26.67;;;5.40;;
51943;SDS011;37969;53.132;6.370;2023-01-04T15:45:54;26.23;;;5.63;;
51943;SDS011;37969;53.132;6.370;2023-01-04T15:48:20;35.67;;;5.72;;
51943;SDS011;37969;53.132;6.370;2023-01-04T15:50:47;36.42;;;6.63;;
51943;SDS011;37969;53.132;6.370;2023-01-04T15:53:13;30.73;;;5.10;;
51943;SDS011;37969;53.132;6.370;2023-01-04T15:55:39;30.15;;;4.45;;
51943;SDS011;37969;53.132;6.370;2023-01-04T15:58:05;31.83;;;4.88;;
51943;SDS011;37969;53.132;6.370;2023-01-04T16:00:32;31.08;;;5.97;;
51943;SDS011;37969;53.132;6.370;2023-01-04T16:02:58;29.90;;;4.43;;
51943;SDS011;37969;53.132;6.370;2023-01-04T16:05:24;31.67;;;5.75;;